METAR Data
IDs: Format: Raw Decoded Include TAF

Data at: 1745 UTC 16 Oct 2021

KABI 161652Z VRB03KT 10SM CLR 18/02 A3046 RMK AO2 SLP304 T01830017
KABI 161552Z 00000KT 10SM CLR 16/04 A3047 RMK AO2 SLP306 T01560044
KABI 161452Z 32004KT 10SM CLR 13/06 A3045 RMK AO2 SLP303 T01280056 53020
KABI 161352Z 27003KT 10SM CLR 09/05 A3043 RMK AO2 SLP297 T00890050
KABI 161252Z 00000KT 9SM CLR 07/04 A3040 RMK AO2 SLP287 T00720039
KABI 161152Z 25003KT 10SM CLR 06/04 A3039 RMK AO2 SLP283 T00610039 10111 20061 53008
KABI 161052Z 23003KT 10SM CLR 08/04 A3037 RMK AO2 SLP275 T00830044
KABI 160952Z 20003KT 10SM CLR 07/04 A3037 RMK AO2 SLP272 T00720044
KABI 160852Z 00000KT 10SM CLR 09/06 A3036 RMK AO2 SLP270 T00890056 51004
KABI 160752Z 36004KT 10SM CLR 11/06 A3036 RMK AO2 SLP269 T01060056
KABI 160652Z 32004KT 10SM R35R/5000VP6000FT CLR 11/06 A3036 RMK AO2 SLP268 T01060056
KABI 160552Z 00000KT 10SM CLR 11/05 A3035 RMK AO2 SLP267 T01110050 10194 20100 402220100 51019
KABI 160452Z 00000KT 10SM CLR 11/06 A3034 RMK AO2 SLP263 T01060056
KABI 160352Z 10SM CLR 13/04 A3032 RMK AO2 SLP257 T01330044
KABI 160252Z 06003KT 10SM CLR 14/04 A3029 RMK AO2 SLP249 T01390044 53026
KABI 160152Z 10SM CLR 16/04 A3026 RMK AO2 SLP237 T01560044
KABI 160052Z 02005KT 10SM CLR 17/04 A3024 RMK AO2 SLP227 T01670044
KABI 152352Z 36012KT 10SM CLR 19/04 A3021 RMK AO2 SLP217 T01940039 10222 20194 53014
KABI 152252Z 36014G25KT 10SM CLR 21/03 A3019 RMK AO2 SLP206 T02110033
KABI 152152Z 36019G25KT 10SM CLR 22/05 A3018 RMK AO2 PK WND 35028/2118 SLP203 T02220050
KABI 152052Z 36016G28KT 10SM CLR 22/05 A3017 RMK AO2 PK WND 33030/2013 SLP197 T02220050 55003
KABI 151952Z 35021G26KT 10SM CLR 22/07 A3017 RMK AO2 PK WND 35031/1907 SLP195 T02170067
KABI 151852Z 35017G28KT 10SM CLR 21/07 A3017 RMK AO2 PK WND 33031/1832 SLP197 T02110072
KABI 151752Z 34019G26KT 10SM CLR 19/08 A3018 RMK AO2 PK WND 35028/1731 SLP200 T01890083 10194 20122 51013
KABI 151652Z 34017G24KT 10SM SCT021 17/08 A3017 RMK AO2 SLP199 T01720078
KABI 151552Z 34015KT 10SM OVC015 14/09 A3016 RMK AO2 SLP197 T01440094
KABI 151459Z 34016KT 10SM OVC013 12/09 A3014 RMK AO2 T01220094
KABI 151452Z 35013KT 10SM OVC016 13/09 A3014 RMK AO2 SLP190 T01280089 53046
KABI 151428Z 34018KT 10SM OVC016 12/08 A3012 RMK AO2 T01220083
KABI 151352Z 34021G26KT 10SM CLR 13/07 A3008 RMK AO2 PK WND 35026/1345 SLP171 T01280072
KABI 151252Z 32012KT 10SM CLR 12/07 A3004 RMK AO2 SLP156 T01220072
KABI 151152Z 32010KT 10SM CLR 13/08 A2999 RMK AO2 SLP138 T01330078 10217 20133 53029
KABI 151052Z 30007KT 10SM CLR 13/09 A2995 RMK AO2 SLP121 T01330089
KABI 150952Z 29006KT 10SM CLR 14/11 A2992 RMK AO2 SLP112 T01440106
KABI 150852Z 30010KT 10SM CLR 18/16 A2990 RMK AO2 SLP103 T01830156 53007
KABI 150752Z 21009KT 10SM CLR 21/18 A2988 RMK AO2 SLP095 T02060183
KABI 150652Z 19008KT 10SM CLR 21/18 A2988 RMK AO2 SLP094 T02060183
KABI 150552Z 20008KT 10SM CLR 21/18 A2988 RMK AO2 SLP095 T02060183 10256 20206 402830150 50007